Terminal Aerodrome Forecast
Issued by NWS Boston, MA

Home | Current Version | Previous Version | Text Only | Print | Product List | Glossary On
Versions: 1 2 3 4 5 6 7 8 9 10 11 12 13 14 15 16 17 18 19 20 21 22 23 24 25
000
FTUS41 KBOX 252012 AAA
TAFBDL
TAF AMD
KBDL 252012Z 2520/2624 27012G18KT P6SM SCT150
     FM260000 30012KT P6SM SCT200
     FM260500 27004KT P6SM SKC
     FM262000 20006KT P6SM BKN060=

USA.gov is the U.S. government's official web portal to all federal, state and local government web resources and services.